Time;durP1;ratioP1;P1;durP2;ratioP2;P2;SDS_P1;SDS_P2;PMS_P1;PMS_P2;Temp;Humidity;BMP_temperature;BMP_pressure;BME280_temperature;BME280_humidity;BME280_pressure;Samples;Min_cycle;Max_cycle;Signal;HPM_P1;HPM_P2
2021/05/27 16:20:14;;;;;;;11.97;10.77;;;25.20;63.30;;;;;;5006939;28;20466;-96
2021/05/27 16:22:40;;;;;;;12.70;11.50;;;25.10;63.20;;;;;;5007673;28;20448;-93
2021/05/27 16:25:07;;;;;;;12.47;11.17;;;25.10;63.20;;;;;;5017864;28;20534;-95
2021/05/27 16:27:36;;;;;;;12.00;10.90;;;25.20;63.10;;;;;;5008283;28;20542;-94
2021/05/27 16:30:04;;;;;;;12.50;11.20;;;25.10;63.00;;;;;;5009271;28;20457;-92
2021/05/27 16:32:31;;;;;;;10.80;9.73;;;25.20;63.00;;;;;;5002375;28;20445;-90
2021/05/27 16:34:59;;;;;;;10.17;9.17;;;25.20;62.30;;;;;;5001115;28;20446;-90
2021/05/27 16:40:17;;;;;;;12.27;11.07;;;25.10;61.90;;;;;;5014245;28;20434;-96
2021/05/27 17:05:30;;;;;;;9.47;8.40;;;25.20;62.90;;;;;;4881777;22;20481;-91
2021/05/27 17:08:22;;;;;;;9.10;8.30;;;25.20;62.60;;;;;;5034683;28;20515;-92
2021/05/27 17:23:06;;;;;;;10.50;9.50;;;25.10;62.70;;;;;;4983210;28;20558;-96
2021/05/27 17:31:35;;;;;;;10.07;9.13;;;25.10;63.00;;;;;;5178842;22;20488;-96
2021/05/27 17:34:01;;;;;;;10.70;9.80;;;25.10;62.90;;;;;;5037498;28;20456;-94
2021/05/27 17:36:31;;;;;;;6.90;6.30;;;25.10;63.00;;;;;;5037070;28;20480;-95
2021/05/27 17:38:57;;;;;;;8.03;7.23;;;25.10;63.00;;;;;;5048615;28;20449;-93
2021/05/27 17:41:24;;;;;;;6.90;6.30;;;25.10;62.70;;;;;;5043018;28;20520;-96
2021/05/27 17:43:51;;;;;;;8.70;7.43;;;25.10;62.50;;;;;;5046014;28;20486;-92
2021/05/27 17:53:11;;;;;;;9.10;8.20;;;25.00;62.90;;;;;;5079992;23;20299;-96
2021/05/27 17:56:03;;;;;;;10.10;8.57;;;25.10;63.10;;;;;;5114425;22;20455;-94
2021/05/27 18:04:53;;;;;;;8.40;7.60;;;25.00;62.90;;;;;;5294100;23;20519;-96
2021/05/27 18:08:13;;;;;;;9.40;7.50;;;25.10;62.90;;;;;;5026846;28;20442;-95
2021/05/27 18:10:44;;;;;;;8.40;7.60;;;25.10;62.80;;;;;;5037504;23;20520;-96
2021/05/27 18:13:10;;;;;;;8.53;7.83;;;25.10;63.00;;;;;;5038749;28;20472;-96
2021/05/27 18:15:37;;;;;;;7.80;7.10;;;25.10;62.90;;;;;;5040136;28;20464;-96
2021/05/27 18:18:10;;;;;;;7.47;6.77;;;25.20;63.00;;;;;;5036126;28;20485;-93
2021/05/27 18:20:38;;;;;;;13.87;7.57;;;25.20;63.00;;;;;;5035473;28;20799;-92
2021/05/27 18:23:05;;;;;;;7.20;6.60;;;25.20;62.90;;;;;;5034709;28;20481;-94
2021/05/27 18:25:33;;;;;;;9.83;8.07;;;25.20;62.90;;;;;;5034679;28;20548;-93
2021/05/27 18:28:01;;;;;;;8.40;7.60;;;25.20;62.90;;;;;;5034480;28;20456;-93
2021/05/27 18:30:28;;;;;;;7.60;6.90;;;25.30;62.90;;;;;;5036305;28;20451;-96
2021/05/27 18:32:54;;;;;;;8.90;7.57;;;25.20;62.80;;;;;;5040547;28;20454;-90
2021/05/27 18:35:21;;;;;;;9.40;8.40;;;25.30;63.00;;;;;;5041462;28;20483;-92
2021/05/27 18:37:50;;;;;;;15.63;7.77;;;25.30;63.00;;;;;;5038842;28;20499;-95
2021/05/27 18:40:18;;;;;;;10.27;9.23;;;25.30;63.00;;;;;;5034999;28;20445;-95
2021/05/27 18:42:45;;;;;;;8.20;6.80;;;25.30;63.00;;;;;;5034238;28;20541;-95
2021/05/27 18:45:12;;;;;;;9.17;7.33;;;25.30;62.90;;;;;;5033873;28;20798;-94
2021/05/27 18:47:39;;;;;;;7.53;6.73;;;25.30;62.90;;;;;;5034093;28;20996;-88
2021/05/27 18:50:06;;;;;;;8.60;7.50;;;25.30;62.90;;;;;;5036634;28;20479;-92
2021/05/27 18:52:33;;;;;;;10.07;7.57;;;25.30;62.90;;;;;;5033837;28;20450;-92
2021/05/27 18:54:59;;;;;;;7.60;6.90;;;25.30;62.90;;;;;;5034403;28;20449;-92
2021/05/27 18:57:26;;;;;;;7.10;6.37;;;25.30;62.90;;;;;;5034188;28;20533;-93
2021/05/27 18:59:52;;;;;;;8.13;7.30;;;25.30;63.00;;;;;;5034450;28;20446;-93
2021/05/27 19:02:20;;;;;;;8.77;7.20;;;25.30;62.90;;;;;;5033915;28;20453;-94
2021/05/27 19:04:47;;;;;;;7.33;6.53;;;25.40;63.00;;;;;;5034385;28;20528;-93
2021/05/27 19:07:13;;;;;;;6.50;5.90;;;25.40;63.00;;;;;;5033842;28;20457;-94
2021/05/27 19:09:40;;;;;;;7.43;6.80;;;25.40;62.90;;;;;;5033611;28;20442;-93
2021/05/27 19:12:07;;;;;;;10.20;6.03;;;25.30;62.90;;;;;;5034204;28;20438;-93
2021/05/27 19:14:33;;;;;;;6.90;6.17;;;25.40;63.00;;;;;;5033711;28;20480;-95
2021/05/27 19:16:59;;;;;;;5.73;5.20;;;25.40;63.00;;;;;;5037002;28;21010;-92
2021/05/27 19:19:27;;;;;;;6.47;5.40;;;25.40;62.90;;;;;;5038258;28;20449;-95
2021/05/27 19:21:55;;;;;;;7.17;6.47;;;25.40;63.00;;;;;;5039023;28;20509;-95
2021/05/27 19:24:21;;;;;;;6.23;5.70;;;25.40;62.90;;;;;;5040799;28;20485;-93
2021/05/27 19:26:48;;;;;;;6.07;5.57;;;25.40;62.90;;;;;;5042460;28;20453;-96
2021/05/27 19:29:14;;;;;;;6.27;5.60;;;25.40;63.80;;;;;;5039219;28;20450;-96
2021/05/27 19:31:40;;;;;;;6.03;5.20;;;25.40;62.90;;;;;;5038632;28;20449;-93
2021/05/27 19:34:07;;;;;;;6.73;6.13;;;25.40;62.90;;;;;;5037641;28;20433;-94
2021/05/27 19:36:34;;;;;;;7.07;5.50;;;25.40;62.90;;;;;;5037490;28;20450;-93
2021/05/27 19:39:00;;;;;;;6.43;5.80;;;25.50;63.00;;;;;;5037311;28;20441;-95
2021/05/27 19:41:26;;;;;;;6.00;5.40;;;25.40;63.00;;;;;;5037399;28;20812;-90
2021/05/27 19:43:53;;;;;;;5.80;5.13;;;25.40;63.00;;;;;;5037157;28;20501;-88
2021/05/27 19:46:19;;;;;;;5.40;4.90;;;25.40;62.90;;;;;;5037184;28;20947;-94
2021/05/27 19:48:46;;;;;;;4.20;3.67;;;25.40;62.90;;;;;;5038083;28;20462;-94
2021/05/27 19:51:12;;;;;;;4.53;4.13;;;25.40;63.30;;;;;;5039004;28;20445;-92
2021/05/27 19:53:39;;;;;;;6.23;5.17;;;25.40;62.20;;;;;;5036461;28;20437;-90
2021/05/27 19:56:09;;;;;;;5.50;4.60;;;25.40;62.20;;;;;;5036308;28;20946;-90
2021/05/27 19:58:38;;;;;;;4.90;4.40;;;25.30;62.40;;;;;;5037901;28;20543;-94
2021/05/27 20:01:04;;;;;;;4.63;4.23;;;25.40;63.60;;;;;;5036871;28;20941;-92
2021/05/27 20:03:31;;;;;;;5.00;4.60;;;25.40;62.80;;;;;;5037543;28;20473;-87
2021/05/27 20:05:57;;;;;;;5.13;4.50;;;25.40;62.80;;;;;;5037781;28;20454;-88
2021/05/27 20:08:23;;;;;;;4.73;4.33;;;25.50;63.00;;;;;;5036613;28;20838;-92
2021/05/27 20:10:50;;;;;;;5.83;4.80;;;25.40;62.80;;;;;;5037776;28;20988;-95
2021/05/27 20:13:17;;;;;;;4.37;3.97;;;25.40;62.80;;;;;;5037438;28;20487;-95
2021/05/27 20:15:44;;;;;;;6.10;5.07;;;25.40;62.90;;;;;;5036668;28;20489;-91
2021/05/27 20:18:10;;;;;;;4.30;3.90;;;25.40;62.90;;;;;;5037304;28;20446;-90
2021/05/27 20:20:38;;;;;;;5.17;4.67;;;25.40;62.80;;;;;;5027989;28;20532;-92
2021/05/27 20:23:04;;;;;;;6.07;4.67;;;25.40;62.80;;;;;;5037762;28;20449;-91
2021/05/27 20:25:31;;;;;;;5.47;4.97;;;25.40;62.80;;;;;;5037428;28;20814;-93
2021/05/27 20:27:58;;;;;;;4.80;4.27;;;25.40;62.80;;;;;;5035591;28;20794;-92
2021/05/27 20:30:25;;;;;;;4.93;4.53;;;25.40;62.80;;;;;;5036236;28;20450;-91
2021/05/27 20:32:52;;;;;;;4.97;4.47;;;25.40;62.80;;;;;;5036129;28;20460;-92
2021/05/27 20:35:18;;;;;;;5.70;4.17;;;25.40;62.90;;;;;;5035766;28;20802;-88
2021/05/27 20:37:47;;;;;;;5.70;4.80;;;25.50;63.00;;;;;;5035846;28;20455;-88
2021/05/27 20:40:15;;;;;;;6.03;3.47;;;25.40;62.90;;;;;;5035659;28;20453;-89
2021/05/27 20:42:41;;;;;;;5.63;3.60;;;25.40;62.90;;;;;;5035602;28;20440;-88
2021/05/27 20:45:10;;;;;;;4.90;4.10;;;25.40;62.90;;;;;;5035528;28;20489;-88
2021/05/27 20:47:38;;;;;;;4.93;4.43;;;25.40;62.90;;;;;;5035346;28;20507;-88
2021/05/27 20:50:05;;;;;;;4.90;3.80;;;25.40;62.90;;;;;;5035500;28;20445;-88
2021/05/27 20:52:32;;;;;;;3.77;3.47;;;25.40;62.80;;;;;;5035097;28;20446;-87
2021/05/27 20:54:58;;;;;;;4.20;3.60;;;25.40;62.90;;;;;;5035319;28;20449;-87
2021/05/27 20:57:24;;;;;;;6.83;4.43;;;25.40;62.80;;;;;;5035125;28;20446;-88
2021/05/27 20:59:51;;;;;;;4.07;3.67;;;25.40;62.80;;;;;;5035312;28;20446;-87
2021/05/27 21:02:18;;;;;;;4.60;4.20;;;25.40;62.80;;;;;;5034898;28;20448;-89
2021/05/27 21:04:44;;;;;;;4.30;3.90;;;25.40;62.80;;;;;;5035272;28;20493;-89
2021/05/27 21:07:11;;;;;;;4.33;3.93;;;25.40;63.10;;;;;;5034964;28;20453;-89
2021/05/27 21:09:37;;;;;;;3.80;3.03;;;25.40;62.80;;;;;;5034688;28;20476;-89
2021/05/27 21:12:04;;;;;;;2.70;2.50;;;25.40;61.90;;;;;;5034707;28;20443;-89
2021/05/27 21:14:30;;;;;;;2.80;2.60;;;25.40;61.00;;;;;;5034665;28;20464;-88
2021/05/27 21:16:57;;;;;;;3.43;3.13;;;25.40;61.00;;;;;;5034810;28;20944;-88
2021/05/27 21:19:24;;;;;;;3.50;3.20;;;25.40;61.30;;;;;;5034691;28;20908;-89
2021/05/27 21:21:50;;;;;;;4.60;2.83;;;25.30;61.70;;;;;;5034917;28;20799;-88
2021/05/27 21:24:16;;;;;;;3.47;3.17;;;25.30;62.00;;;;;;5034702;28;20501;-88
2021/05/27 21:26:43;;;;;;;3.77;3.47;;;25.30;62.10;;;;;;5034646;28;20442;-88
2021/05/27 21:29:09;;;;;;;3.50;3.20;;;25.40;62.30;;;;;;5034681;28;20886;-87
2021/05/27 21:31:36;;;;;;;2.93;2.73;;;25.30;62.20;;;;;;5034552;28;20450;-87
2021/05/27 21:34:03;;;;;;;3.00;2.80;;;25.40;62.40;;;;;;5034386;28;20452;-87
2021/05/27 21:36:31;;;;;;;3.37;3.07;;;25.30;62.30;;;;;;5034820;28;20448;-88
2021/05/27 21:38:57;;;;;;;2.60;2.40;;;25.30;62.30;;;;;;5033932;28;20874;-89
2021/05/27 21:41:25;;;;;;;2.70;2.50;;;25.30;62.30;;;;;;5034479;28;20438;-87
2021/05/27 21:43:51;;;;;;;2.60;2.40;;;25.40;62.40;;;;;;5036409;28;20625;-87
2021/05/27 21:46:18;;;;;;;2.90;2.67;;;25.30;62.40;;;;;;5036467;28;20449;-89
2021/05/27 21:48:44;;;;;;;3.17;2.87;;;25.30;62.40;;;;;;5035998;28;20456;-88
2021/05/27 21:51:11;;;;;;;3.07;2.73;;;25.20;62.30;;;;;;5034710;28;20451;-89
2021/05/27 21:53:38;;;;;;;2.90;2.70;;;25.30;62.40;;;;;;5035631;28;20459;-89
2021/05/27 21:56:04;;;;;;;2.80;2.60;;;25.30;62.40;;;;;;5035132;28;20816;-88
2021/05/27 21:58:31;;;;;;;3.00;2.80;;;25.20;62.30;;;;;;5034404;28;20450;-89
2021/05/27 22:00:57;;;;;;;2.30;2.10;;;25.20;62.30;;;;;;5034424;28;20449;-89
2021/05/27 22:03:23;;;;;;;3.00;2.80;;;25.20;62.40;;;;;;5034176;28;20479;-89
2021/05/27 22:05:50;;;;;;;2.50;2.30;;;25.20;62.30;;;;;;5034180;28;20456;-89
2021/05/27 22:08:17;;;;;;;2.83;2.63;;;25.20;62.40;;;;;;5034050;28;20445;-89
2021/05/27 22:10:44;;;;;;;2.60;2.40;;;25.20;62.30;;;;;;5033894;28;20479;-89
2021/05/27 22:13:11;;;;;;;2.50;2.30;;;25.20;62.40;;;;;;5033731;28;20999;-89
2021/05/27 22:15:39;;;;;;;2.93;2.73;;;25.20;62.40;;;;;;5033698;28;20445;-89
2021/05/27 22:18:10;;;;;;;3.37;2.47;;;25.20;62.40;;;;;;5034026;28;20791;-89
2021/05/27 22:20:37;;;;;;;2.20;2.00;;;25.20;62.40;;;;;;5033999;28;20447;-89
2021/05/27 22:23:03;;;;;;;2.43;2.23;;;25.10;62.30;;;;;;5033790;28;20495;-89
2021/05/27 22:25:30;;;;;;;2.27;2.07;;;25.20;62.50;;;;;;5033788;28;20457;-89
2021/05/27 22:27:58;;;;;;;2.57;2.37;;;25.10;62.30;;;;;;5033711;28;20470;-90
2021/05/27 22:30:25;;;;;;;3.10;2.40;;;25.20;62.40;;;;;;5033758;28;20452;-89
2021/05/27 22:32:51;;;;;;;2.17;1.97;;;25.10;62.30;;;;;;5033920;28;21026;-89
2021/05/27 22:35:18;;;;;;;2.20;2.00;;;25.10;62.30;;;;;;5033426;28;20968;-89
2021/05/27 22:37:44;;;;;;;2.60;2.40;;;25.10;62.30;;;;;;5033564;28;20445;-89
2021/05/27 22:40:11;;;;;;;3.63;2.20;;;25.10;62.30;;;;;;5033346;28;20453;-89
2021/05/27 22:42:37;;;;;;;2.33;2.13;;;25.10;62.30;;;;;;5033215;28;20456;-90
2021/05/27 22:45:07;;;;;;;2.47;2.27;;;25.10;62.30;;;;;;5033333;28;20627;-89
2021/05/27 22:47:34;;;;;;;2.60;2.40;;;25.10;62.30;;;;;;5033213;28;20454;-89
2021/05/27 22:50:00;;;;;;;2.30;2.10;;;25.10;62.20;;;;;;5033551;28;20448;-88
2021/05/27 22:52:27;;;;;;;2.43;2.23;;;25.10;62.20;;;;;;5037361;28;20489;-90
2021/05/27 22:54:53;;;;;;;2.50;2.30;;;25.10;62.20;;;;;;5037573;28;20454;-90
2021/05/27 22:57:19;;;;;;;2.13;2.03;;;25.10;62.30;;;;;;5019480;28;20820;-89
2021/05/27 22:59:46;;;;;;;2.00;1.90;;;25.00;62.10;;;;;;5037550;28;20453;-89
2021/05/27 23:02:13;;;;;;;2.00;1.90;;;25.00;62.20;;;;;;5037504;28;20448;-89
2021/05/27 23:04:40;;;;;;;2.10;1.90;;;25.10;62.20;;;;;;5037248;28;20485;-89
2021/05/27 23:07:06;;;;;;;2.20;1.97;;;25.10;62.20;;;;;;5037159;28;20445;-89
2021/05/27 23:09:32;;;;;;;1.70;1.60;;;25.00;62.10;;;;;;5037283;28;20454;-90
2021/05/27 23:11:59;;;;;;;1.80;1.70;;;25.00;62.10;;;;;;5037139;28;20488;-89
2021/05/27 23:14:25;;;;;;;2.30;2.10;;;25.00;62.10;;;;;;5037398;28;20473;-89
2021/05/27 23:16:51;;;;;;;3.50;1.93;;;25.10;62.10;;;;;;5037187;28;20453;-90
2021/05/27 23:19:18;;;;;;;1.70;1.60;;;25.00;62.00;;;;;;5037468;28;20511;-90
2021/05/27 23:21:45;;;;;;;1.87;1.77;;;25.00;62.00;;;;;;5037173;28;20441;-89
2021/05/27 23:24:11;;;;;;;2.20;2.10;;;25.00;62.00;;;;;;5037141;28;20499;-90
2021/05/27 23:26:43;;;;;;;2.10;1.90;;;25.00;62.00;;;;;;5036721;28;20507;-89
2021/05/27 23:29:09;;;;;;;1.90;1.80;;;25.00;61.90;;;;;;5036942;28;20890;-90
2021/05/27 23:31:36;;;;;;;1.90;1.80;;;25.00;62.00;;;;;;5037075;28;20474;-90
2021/05/27 23:34:03;;;;;;;1.87;1.70;;;25.00;62.00;;;;;;5036881;28;20507;-90
2021/05/27 23:36:30;;;;;;;1.60;1.50;;;25.00;62.00;;;;;;5019660;28;20452;-89
2021/05/27 23:38:56;;;;;;;2.17;1.97;;;25.00;61.90;;;;;;5036610;28;20438;-89
2021/05/27 23:41:22;;;;;;;1.80;1.70;;;25.00;61.90;;;;;;5036810;28;20441;-90
2021/05/27 23:43:49;;;;;;;1.80;1.70;;;25.10;62.00;;;;;;5036363;28;20481;-90
2021/05/27 23:46:17;;;;;;;1.63;1.53;;;25.00;61.90;;;;;;5018776;28;20452;-90
2021/05/27 23:48:44;;;;;;;2.20;1.97;;;25.00;61.80;;;;;;5036477;28;20471;-89
2021/05/27 23:51:10;;;;;;;1.90;1.40;;;25.00;61.90;;;;;;5036751;28;20797;-89
2021/05/27 23:53:38;;;;;;;2.37;2.17;;;25.00;61.80;;;;;;5019066;28;20449;-90
2021/05/27 23:56:04;;;;;;;1.43;1.23;;;24.90;61.80;;;;;;5036470;28;20779;-89
2021/05/27 23:58:32;;;;;;;2.03;1.83;;;24.90;61.70;;;;;;5036331;28;20437;-90
